sensor_id;sensor_type;location;lat;lon;timestamp;temperature;humidity
56308;DHT22;42217;50.422;7.210;2023-09-12T00:02:07;19.90;99.90
56308;DHT22;42217;50.422;7.210;2023-09-12T00:04:32;20.00;99.90
56308;DHT22;42217;50.422;7.210;2023-09-12T00:06:58;20.10;99.90
56308;DHT22;42217;50.422;7.210;2023-09-12T00:09:23;20.20;99.90
56308;DHT22;42217;50.422;7.210;2023-09-12T00:11:49;20.30;99.90
56308;DHT22;42217;50.422;7.210;2023-09-12T00:14:16;20.30;99.90
56308;DHT22;42217;50.422;7.210;2023-09-12T00:16:42;20.50;99.90
56308;DHT22;42217;50.422;7.210;2023-09-12T00:19:07;20.40;99.90
56308;DHT22;42217;50.422;7.210;2023-09-12T00:21:33;20.30;99.90
56308;DHT22;42217;50.422;7.210;2023-09-12T00:23:59;20.30;99.90
56308;DHT22;42217;50.422;7.210;2023-09-12T00:26:24;20.40;99.90
56308;DHT22;42217;50.422;7.210;2023-09-12T00:28:50;20.30;99.90
56308;DHT22;42217;50.422;7.210;2023-09-12T00:31:16;20.40;99.90
56308;DHT22;42217;50.422;7.210;2023-09-12T00:33:41;20.60;99.90
56308;DHT22;42217;50.422;7.210;2023-09-12T00:36:07;20.50;99.90
56308;DHT22;42217;50.422;7.210;2023-09-12T00:38:32;20.40;99.90
56308;DHT22;42217;50.422;7.210;2023-09-12T00:40:58;20.30;99.90
56308;DHT22;42217;50.422;7.210;2023-09-12T00:43:24;20.20;99.90
56308;DHT22;42217;50.422;7.210;2023-09-12T00:45:49;20.40;99.90
56308;DHT22;42217;50.422;7.210;2023-09-12T00:48:16;20.30;99.90
56308;DHT22;42217;50.422;7.210;2023-09-12T00:50:43;20.40;99.90
56308;DHT22;42217;50.422;7.210;2023-09-12T00:53:09;20.30;99.90
56308;DHT22;42217;50.422;7.210;2023-09-12T00:55:37;20.20;99.90
56308;DHT22;42217;50.422;7.210;2023-09-12T00:58:05;20.10;99.90
56308;DHT22;42217;50.422;7.210;2023-09-12T01:00:33;20.30;99.90
56308;DHT22;42217;50.422;7.210;2023-09-12T01:02:59;20.40;99.90
56308;DHT22;42217;50.422;7.210;2023-09-12T01:05:25;20.30;99.90
56308;DHT22;42217;50.422;7.210;2023-09-12T01:07:52;20.10;99.90
56308;DHT22;42217;50.422;7.210;2023-09-12T01:10:18;20.00;99.90
56308;DHT22;42217;50.422;7.210;2023-09-12T01:12:44;19.90;99.90
56308;DHT22;42217;50.422;7.210;2023-09-12T01:15:10;19.80;99.90
56308;DHT22;42217;50.422;7.210;2023-09-12T01:17:41;19.70;99.90
56308;DHT22;42217;50.422;7.210;2023-09-12T01:20:10;19.60;99.90
56308;DHT22;42217;50.422;7.210;2023-09-12T01:22:52;19.50;99.90
56308;DHT22;42217;50.422;7.210;2023-09-12T01:28:18;19.50;99.90
56308;DHT22;42217;50.422;7.210;2023-09-12T01:30:48;19.50;99.90
56308;DHT22;42217;50.422;7.210;2023-09-12T01:33:16;19.60;99.90
56308;DHT22;42217;50.422;7.210;2023-09-12T01:35:41;19.60;99.90
56308;DHT22;42217;50.422;7.210;2023-09-12T01:38:07;19.60;99.90
56308;DHT22;42217;50.422;7.210;2023-09-12T01:40:45;19.60;99.90
56308;DHT22;42217;50.422;7.210;2023-09-12T01:43:16;19.50;99.90
56308;DHT22;42217;50.422;7.210;2023-09-12T01:45:42;19.40;99.90
56308;DHT22;42217;50.422;7.210;2023-09-12T01:48:10;19.30;99.90
56308;DHT22;42217;50.422;7.210;2023-09-12T01:50:36;19.30;99.90
56308;DHT22;42217;50.422;7.210;2023-09-12T01:53:03;19.40;99.90
56308;DHT22;42217;50.422;7.210;2023-09-12T01:55:29;19.40;99.90
56308;DHT22;42217;50.422;7.210;2023-09-12T01:57:55;19.50;99.90
56308;DHT22;42217;50.422;7.210;2023-09-12T02:00:23;19.40;99.90
56308;DHT22;42217;50.422;7.210;2023-09-12T02:02:49;19.30;99.90
56308;DHT22;42217;50.422;7.210;2023-09-12T02:05:20;19.20;99.90
56308;DHT22;42217;50.422;7.210;2023-09-12T02:07:47;19.20;99.90
56308;DHT22;42217;50.422;7.210;2023-09-12T02:10:13;19.10;99.90
56308;DHT22;42217;50.422;7.210;2023-09-12T02:12:39;19.00;99.90
56308;DHT22;42217;50.422;7.210;2023-09-12T02:15:05;18.90;99.90
56308;DHT22;42217;50.422;7.210;2023-09-12T02:17:31;18.80;99.90
56308;DHT22;42217;50.422;7.210;2023-09-12T02:19:56;18.70;99.90
56308;DHT22;42217;50.422;7.210;2023-09-12T02:22:22;18.60;99.90
56308;DHT22;42217;50.422;7.210;2023-09-12T02:24:48;18.50;99.90
56308;DHT22;42217;50.422;7.210;2023-09-12T02:27:14;18.40;99.90
56308;DHT22;42217;50.422;7.210;2023-09-12T02:29:40;18.60;99.90
56308;DHT22;42217;50.422;7.210;2023-09-12T02:32:06;18.50;99.90
56308;DHT22;42217;50.422;7.210;2023-09-12T02:34:32;18.50;99.90
56308;DHT22;42217;50.422;7.210;2023-09-12T02:36:58;18.30;99.90
56308;DHT22;42217;50.422;7.210;2023-09-12T02:39:24;18.20;99.90
56308;DHT22;42217;50.422;7.210;2023-09-12T02:41:50;18.10;99.90
56308;DHT22;42217;50.422;7.210;2023-09-12T02:44:15;17.90;99.90
56308;DHT22;42217;50.422;7.210;2023-09-12T02:46:41;17.90;99.90
56308;DHT22;42217;50.422;7.210;2023-09-12T02:49:07;17.70;99.90
56308;DHT22;42217;50.422;7.210;2023-09-12T02:51:33;17.60;99.90
56308;DHT22;42217;50.422;7.210;2023-09-12T02:53:59;17.50;99.90
56308;DHT22;42217;50.422;7.210;2023-09-12T02:56:24;17.50;99.90
56308;DHT22;42217;50.422;7.210;2023-09-12T02:58:50;17.60;99.90
56308;DHT22;42217;50.422;7.210;2023-09-12T03:01:17;17.70;99.90
56308;DHT22;42217;50.422;7.210;2023-09-12T03:03:45;17.50;99.90
56308;DHT22;42217;50.422;7.210;2023-09-12T03:06:13;17.30;99.90
56308;DHT22;42217;50.422;7.210;2023-09-12T03:08:40;17.30;99.90
56308;DHT22;42217;50.422;7.210;2023-09-12T03:11:06;17.20;99.90
56308;DHT22;42217;50.422;7.210;2023-09-12T03:13:33;17.20;99.90
56308;DHT22;42217;50.422;7.210;2023-09-12T03:16:02;17.10;99.90
56308;DHT22;42217;50.422;7.210;2023-09-12T03:18:28;17.00;99.90
56308;DHT22;42217;50.422;7.210;2023-09-12T03:20:53;17.00;99.90
56308;DHT22;42217;50.422;7.210;2023-09-12T03:23:19;17.10;99.90
56308;DHT22;42217;50.422;7.210;2023-09-12T03:25:45;17.00;99.90
56308;DHT22;42217;50.422;7.210;2023-09-12T03:28:11;17.10;99.90
56308;DHT22;42217;50.422;7.210;2023-09-12T03:30:38;17.20;99.90
56308;DHT22;42217;50.422;7.210;2023-09-12T03:33:05;17.30;99.90
56308;DHT22;42217;50.422;7.210;2023-09-12T03:35:32;17.30;99.90
56308;DHT22;42217;50.422;7.210;2023-09-12T03:37:58;17.20;99.90
56308;DHT22;42217;50.422;7.210;2023-09-12T03:40:24;17.10;99.90
56308;DHT22;42217;50.422;7.210;2023-09-12T03:42:49;17.00;99.90
56308;DHT22;42217;50.422;7.210;2023-09-12T03:45:15;16.90;99.90
56308;DHT22;42217;50.422;7.210;2023-09-12T03:47:41;16.80;99.90
56308;DHT22;42217;50.422;7.210;2023-09-12T03:50:08;16.80;99.90
56308;DHT22;42217;50.422;7.210;2023-09-12T03:52:33;16.90;99.90
56308;DHT22;42217;50.422;7.210;2023-09-12T03:54:59;17.00;99.90
56308;DHT22;42217;50.422;7.210;2023-09-12T03:57:26;17.20;99.90
56308;DHT22;42217;50.422;7.210;2023-09-12T03:59:52;17.50;99.90
56308;DHT22;42217;50.422;7.210;2023-09-12T04:02:18;17.70;99.90
56308;DHT22;42217;50.422;7.210;2023-09-12T04:04:44;17.80;99.90
56308;DHT22;42217;50.422;7.210;2023-09-12T04:07:10;17.90;99.90
56308;DHT22;42217;50.422;7.210;2023-09-12T04:09:35;17.90;99.90
56308;DHT22;42217;50.422;7.210;2023-09-12T04:12:01;17.80;99.90
56308;DHT22;42217;50.422;7.210;2023-09-12T04:14:27;17.90;99.90
56308;DHT22;42217;50.422;7.210;2023-09-12T04:16:53;17.90;99.90
56308;DHT22;42217;50.422;7.210;2023-09-12T04:19:19;17.90;99.90
56308;DHT22;42217;50.422;7.210;2023-09-12T04:21:44;17.90;99.90
56308;DHT22;42217;50.422;7.210;2023-09-12T04:24:10;18.00;99.90
56308;DHT22;42217;50.422;7.210;2023-09-12T04:26:36;18.10;99.90
56308;DHT22;42217;50.422;7.210;2023-09-12T04:29:02;18.10;99.90
56308;DHT22;42217;50.422;7.210;2023-09-12T04:31:28;18.20;99.90
56308;DHT22;42217;50.422;7.210;2023-09-12T04:33:54;18.20;99.90
56308;DHT22;42217;50.422;7.210;2023-09-12T04:36:20;18.20;99.90
56308;DHT22;42217;50.422;7.210;2023-09-12T04:38:46;18.10;99.90
56308;DHT22;42217;50.422;7.210;2023-09-12T04:41:13;18.00;99.90
56308;DHT22;42217;50.422;7.210;2023-09-12T04:43:45;17.90;99.90
56308;DHT22;42217;50.422;7.210;2023-09-12T04:46:11;17.80;99.90
56308;DHT22;42217;50.422;7.210;2023-09-12T04:48:37;17.70;99.90
56308;DHT22;42217;50.422;7.210;2023-09-12T04:51:03;17.60;99.90
56308;DHT22;42217;50.422;7.210;2023-09-12T04:53:29;17.50;99.90
56308;DHT22;42217;50.422;7.210;2023-09-12T04:56:00;17.50;99.90
56308;DHT22;42217;50.422;7.210;2023-09-12T04:58:26;17.40;99.90
56308;DHT22;42217;50.422;7.210;2023-09-12T05:00:51;17.60;99.90
56308;DHT22;42217;50.422;7.210;2023-09-12T05:03:17;17.60;99.90
56308;DHT22;42217;50.422;7.210;2023-09-12T05:05:46;17.60;99.90
56308;DHT22;42217;50.422;7.210;2023-09-12T05:08:12;17.80;99.90
56308;DHT22;42217;50.422;7.210;2023-09-12T05:10:38;17.80;99.90
56308;DHT22;42217;50.422;7.210;2023-09-12T05:13:04;17.90;99.90
56308;DHT22;42217;50.422;7.210;2023-09-12T05:15:30;18.00;99.90
56308;DHT22;42217;50.422;7.210;2023-09-12T05:17:56;18.20;99.90
56308;DHT22;42217;50.422;7.210;2023-09-12T05:20:22;18.10;99.90
56308;DHT22;42217;50.422;7.210;2023-09-12T05:22:47;18.10;99.90
56308;DHT22;42217;50.422;7.210;2023-09-12T05:25:13;18.00;99.90
56308;DHT22;42217;50.422;7.210;2023-09-12T05:27:39;18.00;99.90
56308;DHT22;42217;50.422;7.210;2023-09-12T05:30:05;18.10;99.90
56308;DHT22;42217;50.422;7.210;2023-09-12T05:32:31;18.10;99.90
56308;DHT22;42217;50.422;7.210;2023-09-12T05:34:57;18.10;99.90
56308;DHT22;42217;50.422;7.210;2023-09-12T05:37:22;18.20;99.90
56308;DHT22;42217;50.422;7.210;2023-09-12T05:39:48;18.30;99.90
56308;DHT22;42217;50.422;7.210;2023-09-12T05:42:14;18.30;99.90
56308;DHT22;42217;50.422;7.210;2023-09-12T05:44:46;18.40;99.90
56308;DHT22;42217;50.422;7.210;2023-09-12T05:47:12;18.40;99.90
56308;DHT22;42217;50.422;7.210;2023-09-12T05:49:37;18.40;99.90
56308;DHT22;42217;50.422;7.210;2023-09-12T05:52:03;18.30;99.90
56308;DHT22;42217;50.422;7.210;2023-09-12T05:54:29;18.40;99.90
56308;DHT22;42217;50.422;7.210;2023-09-12T05:56:55;18.50;99.90
56308;DHT22;42217;50.422;7.210;2023-09-12T05:59:20;18.50;99.90
56308;DHT22;42217;50.422;7.210;2023-09-12T06:01:46;18.60;99.90
56308;DHT22;42217;50.422;7.210;2023-09-12T06:04:12;18.70;99.90
56308;DHT22;42217;50.422;7.210;2023-09-12T06:06:37;18.70;99.90
56308;DHT22;42217;50.422;7.210;2023-09-12T06:09:04;18.70;99.90
56308;DHT22;42217;50.422;7.210;2023-09-12T06:11:30;18.70;99.90
56308;DHT22;42217;50.422;7.210;2023-09-12T06:13:56;18.60;99.90
56308;DHT22;42217;50.422;7.210;2023-09-12T06:16:22;18.50;99.90
56308;DHT22;42217;50.422;7.210;2023-09-12T06:18:48;18.50;99.90
56308;DHT22;42217;50.422;7.210;2023-09-12T06:21:14;18.60;99.90
56308;DHT22;42217;50.422;7.210;2023-09-12T06:23:40;18.60;99.90
56308;DHT22;42217;50.422;7.210;2023-09-12T06:26:05;18.70;99.90
56308;DHT22;42217;50.422;7.210;2023-09-12T06:28:31;18.90;99.90
56308;DHT22;42217;50.422;7.210;2023-09-12T06:30:57;19.10;99.90
56308;DHT22;42217;50.422;7.210;2023-09-12T06:33:25;19.30;99.90
56308;DHT22;42217;50.422;7.210;2023-09-12T06:35:51;19.40;99.90
56308;DHT22;42217;50.422;7.210;2023-09-12T06:38:18;19.50;99.90
56308;DHT22;42217;50.422;7.210;2023-09-12T06:40:44;19.60;99.90
56308;DHT22;42217;50.422;7.210;2023-09-12T06:43:10;19.70;99.90
56308;DHT22;42217;50.422;7.210;2023-09-12T06:45:36;19.80;99.90
56308;DHT22;42217;50.422;7.210;2023-09-12T06:48:03;19.90;99.90
56308;DHT22;42217;50.422;7.210;2023-09-12T06:50:29;20.00;99.90
56308;DHT22;42217;50.422;7.210;2023-09-12T06:52:55;20.10;99.90
56308;DHT22;42217;50.422;7.210;2023-09-12T06:55:20;20.20;99.90
56308;DHT22;42217;50.422;7.210;2023-09-12T06:57:46;20.30;99.90
56308;DHT22;42217;50.422;7.210;2023-09-12T07:00:12;20.40;99.90
56308;DHT22;42217;50.422;7.210;2023-09-12T07:02:38;20.60;99.90
56308;DHT22;42217;50.422;7.210;2023-09-12T07:05:04;20.80;99.90
56308;DHT22;42217;50.422;7.210;2023-09-12T07:07:30;21.00;99.90
56308;DHT22;42217;50.422;7.210;2023-09-12T07:09:56;21.00;99.90
56308;DHT22;42217;50.422;7.210;2023-09-12T07:12:22;21.00;99.90
56308;DHT22;42217;50.422;7.210;2023-09-12T07:14:48;21.10;99.90
56308;DHT22;42217;50.422;7.210;2023-09-12T07:17:16;21.30;99.90
56308;DHT22;42217;50.422;7.210;2023-09-12T07:19:43;21.50;99.90
56308;DHT22;42217;50.422;7.210;2023-09-12T07:22:08;21.80;99.90
56308;DHT22;42217;50.422;7.210;2023-09-12T07:24:34;21.80;99.90
56308;DHT22;42217;50.422;7.210;2023-09-12T07:27:00;21.90;99.90
56308;DHT22;42217;50.422;7.210;2023-09-12T07:29:26;22.10;99.90
56308;DHT22;42217;50.422;7.210;2023-09-12T07:31:53;22.10;99.90
56308;DHT22;42217;50.422;7.210;2023-09-12T07:34:20;21.90;99.90
56308;DHT22;42217;50.422;7.210;2023-09-12T07:36:46;21.90;99.90
56308;DHT22;42217;50.422;7.210;2023-09-12T07:39:11;21.70;99.90
56308;DHT22;42217;50.422;7.210;2023-09-12T07:41:38;21.70;99.90
56308;DHT22;42217;50.422;7.210;2023-09-12T07:44:04;21.60;99.90
56308;DHT22;42217;50.422;7.210;2023-09-12T07:46:30;21.50;99.90
56308;DHT22;42217;50.422;7.210;2023-09-12T07:48:56;21.50;99.90
56308;DHT22;42217;50.422;7.210;2023-09-12T07:51:23;21.70;99.90
56308;DHT22;42217;50.422;7.210;2023-09-12T07:53:50;21.90;99.90
56308;DHT22;42217;50.422;7.210;2023-09-12T07:56:15;22.10;99.90
56308;DHT22;42217;50.422;7.210;2023-09-12T07:58:41;22.10;99.90
56308;DHT22;42217;50.422;7.210;2023-09-12T08:01:08;22.30;99.90
56308;DHT22;42217;50.422;7.210;2023-09-12T08:03:34;22.20;99.90
56308;DHT22;42217;50.422;7.210;2023-09-12T08:06:00;22.30;99.90
56308;DHT22;42217;50.422;7.210;2023-09-12T08:08:26;22.20;99.90
56308;DHT22;42217;50.422;7.210;2023-09-12T08:10:52;22.40;99.90
56308;DHT22;42217;50.422;7.210;2023-09-12T08:13:18;22.50;99.90
56308;DHT22;42217;50.422;7.210;2023-09-12T08:15:43;22.60;99.90
56308;DHT22;42217;50.422;7.210;2023-09-12T08:18:10;22.70;99.90
56308;DHT22;42217;50.422;7.210;2023-09-12T08:20:36;22.60;99.90
56308;DHT22;42217;50.422;7.210;2023-09-12T08:23:01;22.70;99.90
56308;DHT22;42217;50.422;7.210;2023-09-12T08:25:27;22.70;99.90
56308;DHT22;42217;50.422;7.210;2023-09-12T08:27:53;22.80;99.90
56308;DHT22;42217;50.422;7.210;2023-09-12T08:30:18;22.90;99.90
56308;DHT22;42217;50.422;7.210;2023-09-12T08:32:44;23.20;99.90
56308;DHT22;42217;50.422;7.210;2023-09-12T08:35:11;23.30;99.90
56308;DHT22;42217;50.422;7.210;2023-09-12T08:37:38;23.30;99.90
56308;DHT22;42217;50.422;7.210;2023-09-12T08:40:05;23.30;99.90
56308;DHT22;42217;50.422;7.210;2023-09-12T08:42:40;23.30;99.90
56308;DHT22;42217;50.422;7.210;2023-09-12T08:45:11;23.20;99.90
56308;DHT22;42217;50.422;7.210;2023-09-12T08:47:40;23.10;99.90
56308;DHT22;42217;50.422;7.210;2023-09-12T08:50:10;23.20;99.90
56308;DHT22;42217;50.422;7.210;2023-09-12T08:52:37;23.20;99.90
56308;DHT22;42217;50.422;7.210;2023-09-12T08:55:03;23.30;99.90
56308;DHT22;42217;50.422;7.210;2023-09-12T08:57:31;23.20;99.90
56308;DHT22;42217;50.422;7.210;2023-09-12T09:00:00;23.10;99.90
56308;DHT22;42217;50.422;7.210;2023-09-12T09:02:30;23.00;99.90
56308;DHT22;42217;50.422;7.210;2023-09-12T09:04:55;22.90;99.90
56308;DHT22;42217;50.422;7.210;2023-09-12T09:07:21;23.20;99.90
56308;DHT22;42217;50.422;7.210;2023-09-12T09:09:48;23.40;99.90
56308;DHT22;42217;50.422;7.210;2023-09-12T09:12:16;23.60;99.90
56308;DHT22;42217;50.422;7.210;2023-09-12T09:14:42;23.50;99.90
56308;DHT22;42217;50.422;7.210;2023-09-12T09:17:08;23.60;99.90
56308;DHT22;42217;50.422;7.210;2023-09-12T09:19:45;23.70;99.90
56308;DHT22;42217;50.422;7.210;2023-09-12T09:22:11;23.90;99.90
56308;DHT22;42217;50.422;7.210;2023-09-12T09:24:37;23.90;99.90
56308;DHT22;42217;50.422;7.210;2023-09-12T09:27:03;23.90;99.90
56308;DHT22;42217;50.422;7.210;2023-09-12T09:29:29;23.70;99.90
56308;DHT22;42217;50.422;7.210;2023-09-12T09:31:59;23.70;99.90
56308;DHT22;42217;50.422;7.210;2023-09-12T09:34:25;23.80;99.90
56308;DHT22;42217;50.422;7.210;2023-09-12T09:36:55;24.10;99.90
56308;DHT22;42217;50.422;7.210;2023-09-12T09:39:26;24.30;99.90
56308;DHT22;42217;50.422;7.210;2023-09-12T09:41:54;24.20;99.90
56308;DHT22;42217;50.422;7.210;2023-09-12T09:44:25;24.20;99.90
56308;DHT22;42217;50.422;7.210;2023-09-12T09:46:55;24.20;99.90
56308;DHT22;42217;50.422;7.210;2023-09-12T09:49:25;24.20;99.90
56308;DHT22;42217;50.422;7.210;2023-09-12T09:51:51;24.00;99.90
56308;DHT22;42217;50.422;7.210;2023-09-12T09:54:24;24.10;99.90
56308;DHT22;42217;50.422;7.210;2023-09-12T09:56:55;24.00;99.90
56308;DHT22;42217;50.422;7.210;2023-09-12T09:59:22;24.00;99.90
56308;DHT22;42217;50.422;7.210;2023-09-12T10:01:50;24.00;99.90
56308;DHT22;42217;50.422;7.210;2023-09-12T10:04:18;23.90;99.90
56308;DHT22;42217;50.422;7.210;2023-09-12T10:06:45;23.80;99.90
56308;DHT22;42217;50.422;7.210;2023-09-12T10:09:13;23.90;99.90
56308;DHT22;42217;50.422;7.210;2023-09-12T10:11:40;23.90;99.90
56308;DHT22;42217;50.422;7.210;2023-09-12T10:14:07;23.90;99.90
56308;DHT22;42217;50.422;7.210;2023-09-12T10:16:45;23.80;99.90
56308;DHT22;42217;50.422;7.210;2023-09-12T10:21:48;24.00;99.90
56308;DHT22;42217;50.422;7.210;2023-09-12T10:24:15;23.80;99.90
56308;DHT22;42217;50.422;7.210;2023-09-12T10:26:43;23.60;99.90
56308;DHT22;42217;50.422;7.210;2023-09-12T10:29:13;23.70;99.90
56308;DHT22;42217;50.422;7.210;2023-09-12T10:31:39;23.90;99.90
56308;DHT22;42217;50.422;7.210;2023-09-12T10:34:05;24.20;99.90
56308;DHT22;42217;50.422;7.210;2023-09-12T10:36:36;24.30;99.90
56308;DHT22;42217;50.422;7.210;2023-09-12T10:39:04;24.60;99.90
56308;DHT22;42217;50.422;7.210;2023-09-12T10:41:32;24.90;99.90
56308;DHT22;42217;50.422;7.210;2023-09-12T10:44:01;24.90;99.90
56308;DHT22;42217;50.422;7.210;2023-09-12T10:46:28;24.90;99.90
56308;DHT22;42217;50.422;7.210;2023-09-12T10:48:54;25.00;99.90
56308;DHT22;42217;50.422;7.210;2023-09-12T10:51:20;24.90;99.90
56308;DHT22;42217;50.422;7.210;2023-09-12T10:53:47;24.60;99.90
56308;DHT22;42217;50.422;7.210;2023-09-12T10:56:17;24.60;99.90
56308;DHT22;42217;50.422;7.210;2023-09-12T11:01:44;24.90;99.90
56308;DHT22;42217;50.422;7.210;2023-09-12T11:06:48;24.40;99.90
56308;DHT22;42217;50.422;7.210;2023-09-12T11:11:44;24.20;99.90
56308;DHT22;42217;50.422;7.210;2023-09-12T11:14:12;24.20;99.90
56308;DHT22;42217;50.422;7.210;2023-09-12T11:16:37;24.30;99.90
56308;DHT22;42217;50.422;7.210;2023-09-12T11:21:45;24.00;99.90
56308;DHT22;42217;50.422;7.210;2023-09-12T11:24:11;24.10;99.90
56308;DHT22;42217;50.422;7.210;2023-09-12T11:29:21;24.40;99.90
56308;DHT22;42217;50.422;7.210;2023-09-12T11:32:24;24.60;99.90
56308;DHT22;42217;50.422;7.210;2023-09-12T11:34:51;24.60;99.90
56308;DHT22;42217;50.422;7.210;2023-09-12T11:37:27;24.80;99.90
56308;DHT22;42217;50.422;7.210;2023-09-12T11:39:54;24.60;99.90
56308;DHT22;42217;50.422;7.210;2023-09-12T11:42:20;24.70;99.90
56308;DHT22;42217;50.422;7.210;2023-09-12T11:44:49;24.80;99.90
56308;DHT22;42217;50.422;7.210;2023-09-12T11:47:15;24.90;99.90
56308;DHT22;42217;50.422;7.210;2023-09-12T11:49:41;24.90;99.90
56308;DHT22;42217;50.422;7.210;2023-09-12T11:52:14;25.00;99.90
56308;DHT22;42217;50.422;7.210;2023-09-12T11:54:42;25.20;99.90
56308;DHT22;42217;50.422;7.210;2023-09-12T11:57:13;25.50;99.90
56308;DHT22;42217;50.422;7.210;2023-09-12T11:59:41;26.00;99.90
56308;DHT22;42217;50.422;7.210;2023-09-12T12:02:10;26.60;99.90
56308;DHT22;42217;50.422;7.210;2023-09-12T12:04:37;26.70;99.90
56308;DHT22;42217;50.422;7.210;2023-09-12T12:07:03;26.50;99.90
56308;DHT22;42217;50.422;7.210;2023-09-12T12:09:32;26.20;99.90
56308;DHT22;42217;50.422;7.210;2023-09-12T12:12:09;25.90;99.90
56308;DHT22;42217;50.422;7.210;2023-09-12T12:14:35;25.80;99.90
56308;DHT22;42217;50.422;7.210;2023-09-12T12:17:09;26.00;99.90
56308;DHT22;42217;50.422;7.210;2023-09-12T12:19:35;26.30;99.90
56308;DHT22;42217;50.422;7.210;2023-09-12T12:22:03;26.20;99.90
56308;DHT22;42217;50.422;7.210;2023-09-12T12:24:40;26.30;99.90
56308;DHT22;42217;50.422;7.210;2023-09-12T12:27:06;26.40;99.90
56308;DHT22;42217;50.422;7.210;2023-09-12T12:29:34;26.40;99.90
56308;DHT22;42217;50.422;7.210;2023-09-12T12:32:01;26.30;99.90
56308;DHT22;42217;50.422;7.210;2023-09-12T12:34:27;26.00;99.90
56308;DHT22;42217;50.422;7.210;2023-09-12T12:36:56;26.10;99.90
56308;DHT22;42217;50.422;7.210;2023-09-12T12:39:22;25.80;99.90
56308;DHT22;42217;50.422;7.210;2023-09-12T12:41:54;25.80;99.90
56308;DHT22;42217;50.422;7.210;2023-09-12T12:44:21;26.10;99.90
56308;DHT22;42217;50.422;7.210;2023-09-12T12:46:53;26.00;99.90
56308;DHT22;42217;50.422;7.210;2023-09-12T12:49:22;26.00;99.90
56308;DHT22;42217;50.422;7.210;2023-09-12T12:51:49;26.00;99.90
56308;DHT22;42217;50.422;7.210;2023-09-12T12:54:15;25.80;99.90
56308;DHT22;42217;50.422;7.210;2023-09-12T12:56:42;25.80;99.90
56308;DHT22;42217;50.422;7.210;2023-09-12T12:59:08;26.10;99.90
56308;DHT22;42217;50.422;7.210;2023-09-12T13:01:35;26.40;99.90
56308;DHT22;42217;50.422;7.210;2023-09-12T13:04:01;26.60;99.90
56308;DHT22;42217;50.422;7.210;2023-09-12T13:06:27;26.70;99.90
56308;DHT22;42217;50.422;7.210;2023-09-12T13:08:55;26.60;99.90
56308;DHT22;42217;50.422;7.210;2023-09-12T13:11:22;26.70;99.90
56308;DHT22;42217;50.422;7.210;2023-09-12T13:13:51;26.70;99.90
56308;DHT22;42217;50.422;7.210;2023-09-12T13:16:17;26.90;99.90
56308;DHT22;42217;50.422;7.210;2023-09-12T13:18:43;27.00;99.90
56308;DHT22;42217;50.422;7.210;2023-09-12T13:21:08;27.20;99.90
56308;DHT22;42217;50.422;7.210;2023-09-12T13:23:37;27.00;99.90
56308;DHT22;42217;50.422;7.210;2023-09-12T13:26:02;26.70;99.90
56308;DHT22;42217;50.422;7.210;2023-09-12T13:28:29;26.40;99.90
56308;DHT22;42217;50.422;7.210;2023-09-12T13:30:55;26.70;99.90
56308;DHT22;42217;50.422;7.210;2023-09-12T13:33:20;27.00;99.90
56308;DHT22;42217;50.422;7.210;2023-09-12T13:35:48;27.30;99.90
56308;DHT22;42217;50.422;7.210;2023-09-12T13:38:14;27.50;99.90
56308;DHT22;42217;50.422;7.210;2023-09-12T13:40:43;28.10;99.90
56308;DHT22;42217;50.422;7.210;2023-09-12T13:43:09;28.10;99.90
56308;DHT22;42217;50.422;7.210;2023-09-12T13:45:35;28.40;99.90
56308;DHT22;42217;50.422;7.210;2023-09-12T13:48:03;28.90;99.90
56308;DHT22;42217;50.422;7.210;2023-09-12T13:50:29;29.90;99.90
56308;DHT22;42217;50.422;7.210;2023-09-12T13:52:57;30.30;99.90
56308;DHT22;42217;50.422;7.210;2023-09-12T13:55:22;30.10;99.90
56308;DHT22;42217;50.422;7.210;2023-09-12T13:57:48;29.90;99.90
56308;DHT22;42217;50.422;7.210;2023-09-12T14:00:14;29.90;99.90
56308;DHT22;42217;50.422;7.210;2023-09-12T14:02:40;29.60;99.90
56308;DHT22;42217;50.422;7.210;2023-09-12T14:05:06;29.00;99.90
56308;DHT22;42217;50.422;7.210;2023-09-12T14:07:31;28.50;99.90
56308;DHT22;42217;50.422;7.210;2023-09-12T14:09:57;27.90;99.90
56308;DHT22;42217;50.422;7.210;2023-09-12T14:12:24;27.40;99.90
56308;DHT22;42217;50.422;7.210;2023-09-12T14:14:51;27.20;99.90
56308;DHT22;42217;50.422;7.210;2023-09-12T14:17:17;27.50;99.90
56308;DHT22;42217;50.422;7.210;2023-09-12T14:19:43;28.30;99.90
56308;DHT22;42217;50.422;7.210;2023-09-12T14:22:09;29.00;99.90
56308;DHT22;42217;50.422;7.210;2023-09-12T14:24:34;29.00;99.90
56308;DHT22;42217;50.422;7.210;2023-09-12T14:27:00;29.10;99.90
56308;DHT22;42217;50.422;7.210;2023-09-12T14:29:26;29.50;99.90
56308;DHT22;42217;50.422;7.210;2023-09-12T14:31:55;30.20;99.90
56308;DHT22;42217;50.422;7.210;2023-09-12T14:34:26;30.70;99.90
56308;DHT22;42217;50.422;7.210;2023-09-12T14:36:56;31.00;99.90
56308;DHT22;42217;50.422;7.210;2023-09-12T14:39:23;31.20;99.90
56308;DHT22;42217;50.422;7.210;2023-09-12T14:41:49;31.00;99.90
56308;DHT22;42217;50.422;7.210;2023-09-12T14:44:26;30.40;99.90
56308;DHT22;42217;50.422;7.210;2023-09-12T14:46:53;29.80;99.90
56308;DHT22;42217;50.422;7.210;2023-09-12T14:49:19;29.60;99.90
56308;DHT22;42217;50.422;7.210;2023-09-12T14:51:45;29.80;99.90
56308;DHT22;42217;50.422;7.210;2023-09-12T14:54:10;29.70;99.90
56308;DHT22;42217;50.422;7.210;2023-09-12T14:56:36;29.40;99.90
56308;DHT22;42217;50.422;7.210;2023-09-12T14:59:04;29.90;99.90
56308;DHT22;42217;50.422;7.210;2023-09-12T15:01:30;30.40;99.90
56308;DHT22;42217;50.422;7.210;2023-09-12T15:03:56;30.80;99.90
56308;DHT22;42217;50.422;7.210;2023-09-12T15:06:22;30.90;99.90
56308;DHT22;42217;50.422;7.210;2023-09-12T15:08:51;30.50;99.90
56308;DHT22;42217;50.422;7.210;2023-09-12T15:11:17;29.90;99.90
56308;DHT22;42217;50.422;7.210;2023-09-12T15:13:42;29.20;99.90
56308;DHT22;42217;50.422;7.210;2023-09-12T15:16:09;28.30;99.90
56308;DHT22;42217;50.422;7.210;2023-09-12T15:18:35;27.20;99.90
56308;DHT22;42217;50.422;7.210;2023-09-12T15:21:03;26.30;99.90
56308;DHT22;42217;50.422;7.210;2023-09-12T15:23:29;25.60;99.90
56308;DHT22;42217;50.422;7.210;2023-09-12T15:25:56;25.30;99.90
56308;DHT22;42217;50.422;7.210;2023-09-12T15:28:21;25.20;99.90
56308;DHT22;42217;50.422;7.210;2023-09-12T15:30:47;25.00;99.90
56308;DHT22;42217;50.422;7.210;2023-09-12T15:33:12;24.90;99.90
56308;DHT22;42217;50.422;7.210;2023-09-12T15:35:38;24.70;99.90
56308;DHT22;42217;50.422;7.210;2023-09-12T15:38:05;24.60;99.90
56308;DHT22;42217;50.422;7.210;2023-09-12T15:40:32;24.50;99.90
56308;DHT22;42217;50.422;7.210;2023-09-12T15:42:58;24.40;99.90
56308;DHT22;42217;50.422;7.210;2023-09-12T15:45:23;24.30;99.90
56308;DHT22;42217;50.422;7.210;2023-09-12T15:47:49;24.20;99.90